sensor_id;sensor_type;location;lat;lon;timestamp;temperature;humidity
20946;DHT22;10632;51.276;7.116;2022-12-20T00:01:44;9.90;99.90
20946;DHT22;10632;51.276;7.116;2022-12-20T00:04:13;9.90;99.90
20946;DHT22;10632;51.276;7.116;2022-12-20T00:06:39;9.90;99.90
20946;DHT22;10632;51.276;7.116;2022-12-20T00:09:08;9.90;99.90
20946;DHT22;10632;51.276;7.116;2022-12-20T00:11:37;9.90;99.90
20946;DHT22;10632;51.276;7.116;2022-12-20T00:14:05;10.00;99.90
20946;DHT22;10632;51.276;7.116;2022-12-20T00:16:35;10.00;99.90
20946;DHT22;10632;51.276;7.116;2022-12-20T00:19:05;10.00;99.90
20946;DHT22;10632;51.276;7.116;2022-12-20T00:21:33;10.00;99.90
20946;DHT22;10632;51.276;7.116;2022-12-20T00:24:00;10.00;99.90
20946;DHT22;10632;51.276;7.116;2022-12-20T00:26:29;10.00;99.90
20946;DHT22;10632;51.276;7.116;2022-12-20T00:28:56;10.10;99.90
20946;DHT22;10632;51.276;7.116;2022-12-20T00:31:25;10.10;99.90
20946;DHT22;10632;51.276;7.116;2022-12-20T00:33:54;10.10;99.90
20946;DHT22;10632;51.276;7.116;2022-12-20T00:36:25;10.10;99.90
20946;DHT22;10632;51.276;7.116;2022-12-20T00:38:54;10.10;99.90
20946;DHT22;10632;51.276;7.116;2022-12-20T00:41:23;10.10;99.90
20946;DHT22;10632;51.276;7.116;2022-12-20T00:43:51;10.10;99.90
20946;DHT22;10632;51.276;7.116;2022-12-20T00:46:19;10.10;99.90
20946;DHT22;10632;51.276;7.116;2022-12-20T00:48:48;10.10;99.90
20946;DHT22;10632;51.276;7.116;2022-12-20T00:51:18;10.10;99.90
20946;DHT22;10632;51.276;7.116;2022-12-20T00:53:46;10.20;99.90
20946;DHT22;10632;51.276;7.116;2022-12-20T00:56:13;10.20;99.90
20946;DHT22;10632;51.276;7.116;2022-12-20T00:58:41;10.20;99.90
20946;DHT22;10632;51.276;7.116;2022-12-20T01:01:15;10.20;99.90
20946;DHT22;10632;51.276;7.116;2022-12-20T01:03:43;10.20;99.90
20946;DHT22;10632;51.276;7.116;2022-12-20T01:06:10;10.20;99.90
20946;DHT22;10632;51.276;7.116;2022-12-20T01:08:37;10.20;99.90
20946;DHT22;10632;51.276;7.116;2022-12-20T01:11:07;10.20;99.90
20946;DHT22;10632;51.276;7.116;2022-12-20T01:13:37;10.20;99.90
20946;DHT22;10632;51.276;7.116;2022-12-20T01:16:05;10.20;99.90
20946;DHT22;10632;51.276;7.116;2022-12-20T01:18:33;10.10;99.90
20946;DHT22;10632;51.276;7.116;2022-12-20T01:21:01;10.10;99.90
20946;DHT22;10632;51.276;7.116;2022-12-20T01:23:28;10.00;99.90
20946;DHT22;10632;51.276;7.116;2022-12-20T01:25:57;10.00;99.90
20946;DHT22;10632;51.276;7.116;2022-12-20T01:28:26;9.90;99.90
20946;DHT22;10632;51.276;7.116;2022-12-20T01:30:55;9.90;99.90
20946;DHT22;10632;51.276;7.116;2022-12-20T01:33:22;9.90;99.90
20946;DHT22;10632;51.276;7.116;2022-12-20T01:35:56;9.90;99.90
20946;DHT22;10632;51.276;7.116;2022-12-20T01:38:24;9.90;99.90
20946;DHT22;10632;51.276;7.116;2022-12-20T01:40:52;9.90;99.90
20946;DHT22;10632;51.276;7.116;2022-12-20T01:43:20;9.80;99.90
20946;DHT22;10632;51.276;7.116;2022-12-20T01:45:49;9.80;99.90
20946;DHT22;10632;51.276;7.116;2022-12-20T01:48:20;9.80;99.90
20946;DHT22;10632;51.276;7.116;2022-12-20T01:50:48;9.80;99.90
20946;DHT22;10632;51.276;7.116;2022-12-20T01:53:17;9.80;99.90
20946;DHT22;10632;51.276;7.116;2022-12-20T01:55:45;9.80;99.90
20946;DHT22;10632;51.276;7.116;2022-12-20T01:58:13;9.80;99.90
20946;DHT22;10632;51.276;7.116;2022-12-20T02:00:42;9.70;99.90
20946;DHT22;10632;51.276;7.116;2022-12-20T02:03:13;9.70;99.90
20946;DHT22;10632;51.276;7.116;2022-12-20T02:05:43;9.70;99.90
20946;DHT22;10632;51.276;7.116;2022-12-20T02:08:12;9.70;99.90
20946;DHT22;10632;51.276;7.116;2022-12-20T02:10:53;9.80;99.90
20946;DHT22;10632;51.276;7.116;2022-12-20T02:13:33;9.70;99.90
20946;DHT22;10632;51.276;7.116;2022-12-20T02:16:03;9.70;99.90
20946;DHT22;10632;51.276;7.116;2022-12-20T02:18:36;9.70;99.90
20946;DHT22;10632;51.276;7.116;2022-12-20T02:21:16;9.70;99.90
20946;DHT22;10632;51.276;7.116;2022-12-20T02:26:59;9.60;99.90
20946;DHT22;10632;51.276;7.116;2022-12-20T02:29:33;9.60;99.90
20946;DHT22;10632;51.276;7.116;2022-12-20T02:32:08;9.60;99.90
20946;DHT22;10632;51.276;7.116;2022-12-20T02:34:40;9.50;99.90
20946;DHT22;10632;51.276;7.116;2022-12-20T02:37:08;9.50;99.90
20946;DHT22;10632;51.276;7.116;2022-12-20T02:39:37;9.50;99.90
20946;DHT22;10632;51.276;7.116;2022-12-20T02:42:06;9.40;99.90
20946;DHT22;10632;51.276;7.116;2022-12-20T02:44:37;9.50;99.90
20946;DHT22;10632;51.276;7.116;2022-12-20T02:47:26;9.50;99.90
20946;DHT22;10632;51.276;7.116;2022-12-20T02:49:56;9.50;99.90
20946;DHT22;10632;51.276;7.116;2022-12-20T02:52:24;9.50;99.90
20946;DHT22;10632;51.276;7.116;2022-12-20T02:54:55;9.50;99.90
20946;DHT22;10632;51.276;7.116;2022-12-20T02:57:28;9.50;99.90
20946;DHT22;10632;51.276;7.116;2022-12-20T03:00:03;9.50;99.90
20946;DHT22;10632;51.276;7.116;2022-12-20T03:02:33;9.50;99.90
20946;DHT22;10632;51.276;7.116;2022-12-20T03:05:22;9.50;99.90
20946;DHT22;10632;51.276;7.116;2022-12-20T03:07:50;9.50;99.90
20946;DHT22;10632;51.276;7.116;2022-12-20T03:10:17;9.50;99.90
20946;DHT22;10632;51.276;7.116;2022-12-20T03:12:46;9.50;99.90
20946;DHT22;10632;51.276;7.116;2022-12-20T03:15:13;9.40;99.90
20946;DHT22;10632;51.276;7.116;2022-12-20T03:17:44;9.40;99.90
20946;DHT22;10632;51.276;7.116;2022-12-20T03:20:10;9.40;99.90
20946;DHT22;10632;51.276;7.116;2022-12-20T03:22:37;9.40;99.90
20946;DHT22;10632;51.276;7.116;2022-12-20T03:25:08;9.40;99.90
20946;DHT22;10632;51.276;7.116;2022-12-20T03:27:35;9.30;99.90
20946;DHT22;10632;51.276;7.116;2022-12-20T03:30:03;9.30;99.90
20946;DHT22;10632;51.276;7.116;2022-12-20T03:32:30;9.30;99.90
20946;DHT22;10632;51.276;7.116;2022-12-20T03:34:58;9.30;99.90
20946;DHT22;10632;51.276;7.116;2022-12-20T03:37:25;9.30;99.90
20946;DHT22;10632;51.276;7.116;2022-12-20T03:39:52;9.30;99.90
20946;DHT22;10632;51.276;7.116;2022-12-20T03:42:21;9.20;99.90
20946;DHT22;10632;51.276;7.116;2022-12-20T03:44:48;9.30;99.90
20946;DHT22;10632;51.276;7.116;2022-12-20T03:47:15;9.20;99.90
20946;DHT22;10632;51.276;7.116;2022-12-20T03:49:41;9.20;99.90
20946;DHT22;10632;51.276;7.116;2022-12-20T03:52:11;9.20;99.90
20946;DHT22;10632;51.276;7.116;2022-12-20T03:54:39;9.20;99.90
20946;DHT22;10632;51.276;7.116;2022-12-20T03:57:06;9.20;99.90
20946;DHT22;10632;51.276;7.116;2022-12-20T03:59:33;9.20;99.90
20946;DHT22;10632;51.276;7.116;2022-12-20T04:02:01;9.20;99.90
20946;DHT22;10632;51.276;7.116;2022-12-20T04:04:28;9.20;99.90
20946;DHT22;10632;51.276;7.116;2022-12-20T04:06:55;9.10;99.90
20946;DHT22;10632;51.276;7.116;2022-12-20T04:09:23;9.10;99.90
20946;DHT22;10632;51.276;7.116;2022-12-20T04:11:50;9.00;99.90
20946;DHT22;10632;51.276;7.116;2022-12-20T04:14:17;9.00;99.90
20946;DHT22;10632;51.276;7.116;2022-12-20T04:16:43;9.00;99.90
20946;DHT22;10632;51.276;7.116;2022-12-20T04:19:14;9.00;99.90
20946;DHT22;10632;51.276;7.116;2022-12-20T04:21:41;9.00;99.90
20946;DHT22;10632;51.276;7.116;2022-12-20T04:24:08;9.00;99.90
20946;DHT22;10632;51.276;7.116;2022-12-20T04:26:36;8.90;99.90
20946;DHT22;10632;51.276;7.116;2022-12-20T04:29:03;9.00;99.90
20946;DHT22;10632;51.276;7.116;2022-12-20T04:31:30;8.90;99.90
20946;DHT22;10632;51.276;7.116;2022-12-20T04:33:57;8.90;99.90
20946;DHT22;10632;51.276;7.116;2022-12-20T04:36:24;8.90;99.90
20946;DHT22;10632;51.276;7.116;2022-12-20T04:38:51;8.80;99.90
20946;DHT22;10632;51.276;7.116;2022-12-20T04:41:18;8.80;99.90
20946;DHT22;10632;51.276;7.116;2022-12-20T04:43:54;8.80;99.90
20946;DHT22;10632;51.276;7.116;2022-12-20T04:46:22;8.80;99.90
20946;DHT22;10632;51.276;7.116;2022-12-20T04:48:49;8.80;99.90
20946;DHT22;10632;51.276;7.116;2022-12-20T04:51:16;8.80;99.90
20946;DHT22;10632;51.276;7.116;2022-12-20T04:53:44;8.80;99.90
20946;DHT22;10632;51.276;7.116;2022-12-20T04:56:14;8.80;99.90
20946;DHT22;10632;51.276;7.116;2022-12-20T04:58:41;8.80;99.90
20946;DHT22;10632;51.276;7.116;2022-12-20T05:01:10;8.80;99.90
20946;DHT22;10632;51.276;7.116;2022-12-20T05:03:37;8.80;99.90
20946;DHT22;10632;51.276;7.116;2022-12-20T05:06:04;8.80;99.90
20946;DHT22;10632;51.276;7.116;2022-12-20T05:08:32;8.80;99.90
20946;DHT22;10632;51.276;7.116;2022-12-20T05:10:59;8.80;99.90
20946;DHT22;10632;51.276;7.116;2022-12-20T05:13:26;8.80;99.90
20946;DHT22;10632;51.276;7.116;2022-12-20T05:15:54;8.80;99.90
20946;DHT22;10632;51.276;7.116;2022-12-20T05:18:24;8.80;99.90
20946;DHT22;10632;51.276;7.116;2022-12-20T05:20:54;8.80;99.90
20946;DHT22;10632;51.276;7.116;2022-12-20T05:23:35;8.80;99.90
20946;DHT22;10632;51.276;7.116;2022-12-20T05:26:19;8.70;99.90
20946;DHT22;10632;51.276;7.116;2022-12-20T05:28:47;8.80;99.90
20946;DHT22;10632;51.276;7.116;2022-12-20T05:31:14;8.80;99.90
20946;DHT22;10632;51.276;7.116;2022-12-20T05:33:43;8.70;99.90
20946;DHT22;10632;51.276;7.116;2022-12-20T05:36:10;8.70;99.90
20946;DHT22;10632;51.276;7.116;2022-12-20T05:38:37;8.80;99.90
20946;DHT22;10632;51.276;7.116;2022-12-20T05:41:04;8.70;99.90
20946;DHT22;10632;51.276;7.116;2022-12-20T05:43:31;8.80;99.90
20946;DHT22;10632;51.276;7.116;2022-12-20T05:45:58;8.70;99.90
20946;DHT22;10632;51.276;7.116;2022-12-20T05:48:26;8.80;99.90
20946;DHT22;10632;51.276;7.116;2022-12-20T05:50:54;8.80;99.90
20946;DHT22;10632;51.276;7.116;2022-12-20T05:53:21;8.80;99.90
20946;DHT22;10632;51.276;7.116;2022-12-20T05:55:50;8.80;99.90
20946;DHT22;10632;51.276;7.116;2022-12-20T05:58:18;8.90;99.90
20946;DHT22;10632;51.276;7.116;2022-12-20T06:00:45;8.90;99.90
20946;DHT22;10632;51.276;7.116;2022-12-20T06:03:13;8.90;99.90
20946;DHT22;10632;51.276;7.116;2022-12-20T06:05:46;8.90;99.90
20946;DHT22;10632;51.276;7.116;2022-12-20T06:08:15;8.90;99.90
20946;DHT22;10632;51.276;7.116;2022-12-20T06:10:41;9.00;99.90
20946;DHT22;10632;51.276;7.116;2022-12-20T06:13:09;9.00;99.90
20946;DHT22;10632;51.276;7.116;2022-12-20T06:15:36;8.90;99.90
20946;DHT22;10632;51.276;7.116;2022-12-20T06:18:04;9.00;99.90
20946;DHT22;10632;51.276;7.116;2022-12-20T06:20:31;9.00;99.90
20946;DHT22;10632;51.276;7.116;2022-12-20T06:22:58;9.00;99.90
20946;DHT22;10632;51.276;7.116;2022-12-20T06:25:27;8.90;99.90
20946;DHT22;10632;51.276;7.116;2022-12-20T06:27:54;9.00;99.90
20946;DHT22;10632;51.276;7.116;2022-12-20T06:30:21;9.00;99.90
20946;DHT22;10632;51.276;7.116;2022-12-20T06:32:48;9.00;99.90
20946;DHT22;10632;51.276;7.116;2022-12-20T06:35:15;9.10;99.90
20946;DHT22;10632;51.276;7.116;2022-12-20T06:37:42;9.10;99.90
20946;DHT22;10632;51.276;7.116;2022-12-20T06:40:11;9.10;99.90
20946;DHT22;10632;51.276;7.116;2022-12-20T06:42:40;9.20;99.90
20946;DHT22;10632;51.276;7.116;2022-12-20T06:45:07;9.20;99.90
20946;DHT22;10632;51.276;7.116;2022-12-20T06:47:34;9.20;99.90
20946;DHT22;10632;51.276;7.116;2022-12-20T06:50:02;9.20;99.90
20946;DHT22;10632;51.276;7.116;2022-12-20T06:52:29;9.10;99.90
20946;DHT22;10632;51.276;7.116;2022-12-20T06:54:55;9.10;99.90
20946;DHT22;10632;51.276;7.116;2022-12-20T06:57:22;9.10;99.90
20946;DHT22;10632;51.276;7.116;2022-12-20T06:59:51;9.10;99.90
20946;DHT22;10632;51.276;7.116;2022-12-20T07:02:18;9.20;99.90
20946;DHT22;10632;51.276;7.116;2022-12-20T07:04:45;9.20;99.90
20946;DHT22;10632;51.276;7.116;2022-12-20T07:07:12;9.10;99.90
20946;DHT22;10632;51.276;7.116;2022-12-20T07:09:39;9.20;99.90
20946;DHT22;10632;51.276;7.116;2022-12-20T07:12:07;9.10;99.90
20946;DHT22;10632;51.276;7.116;2022-12-20T07:14:34;9.10;99.90
20946;DHT22;10632;51.276;7.116;2022-12-20T07:17:02;9.10;99.90
20946;DHT22;10632;51.276;7.116;2022-12-20T07:19:29;9.10;99.90
20946;DHT22;10632;51.276;7.116;2022-12-20T07:21:56;9.10;99.90
20946;DHT22;10632;51.276;7.116;2022-12-20T07:24:23;9.10;99.90
20946;DHT22;10632;51.276;7.116;2022-12-20T07:26:50;9.20;99.90
20946;DHT22;10632;51.276;7.116;2022-12-20T07:29:17;9.10;99.90
20946;DHT22;10632;51.276;7.116;2022-12-20T07:31:44;9.10;99.90
20946;DHT22;10632;51.276;7.116;2022-12-20T07:34:12;9.10;99.90
20946;DHT22;10632;51.276;7.116;2022-12-20T07:36:39;9.10;99.90
20946;DHT22;10632;51.276;7.116;2022-12-20T07:39:06;9.10;99.90
20946;DHT22;10632;51.276;7.116;2022-12-20T07:44:01;9.20;99.90
20946;DHT22;10632;51.276;7.116;2022-12-20T07:46:28;9.20;99.90
20946;DHT22;10632;51.276;7.116;2022-12-20T07:48:55;9.20;99.90
20946;DHT22;10632;51.276;7.116;2022-12-20T07:51:27;9.20;99.90
20946;DHT22;10632;51.276;7.116;2022-12-20T07:54:02;9.20;99.90
20946;DHT22;10632;51.276;7.116;2022-12-20T07:56:31;9.20;99.90
20946;DHT22;10632;51.276;7.116;2022-12-20T07:58:59;9.20;99.90
20946;DHT22;10632;51.276;7.116;2022-12-20T08:01:28;9.30;99.90
20946;DHT22;10632;51.276;7.116;2022-12-20T08:03:58;9.30;99.90
20946;DHT22;10632;51.276;7.116;2022-12-20T08:06:28;9.30;99.90
20946;DHT22;10632;51.276;7.116;2022-12-20T08:08:58;9.40;99.90
20946;DHT22;10632;51.276;7.116;2022-12-20T08:11:27;9.40;99.90
20946;DHT22;10632;51.276;7.116;2022-12-20T08:13:54;9.40;99.90
20946;DHT22;10632;51.276;7.116;2022-12-20T08:16:22;9.40;99.90
20946;DHT22;10632;51.276;7.116;2022-12-20T08:18:48;9.40;99.90
20946;DHT22;10632;51.276;7.116;2022-12-20T08:21:15;9.40;99.90
20946;DHT22;10632;51.276;7.116;2022-12-20T08:23:44;9.40;99.90
20946;DHT22;10632;51.276;7.116;2022-12-20T08:26:11;9.40;99.90
20946;DHT22;10632;51.276;7.116;2022-12-20T08:28:37;9.40;99.90
20946;DHT22;10632;51.276;7.116;2022-12-20T08:31:08;9.40;99.90
20946;DHT22;10632;51.276;7.116;2022-12-20T08:33:37;9.40;99.90
20946;DHT22;10632;51.276;7.116;2022-12-20T08:36:07;9.40;99.90
20946;DHT22;10632;51.276;7.116;2022-12-20T08:38:34;9.40;99.90
20946;DHT22;10632;51.276;7.116;2022-12-20T08:41:04;9.40;99.90
20946;DHT22;10632;51.276;7.116;2022-12-20T08:43:31;9.40;99.90
20946;DHT22;10632;51.276;7.116;2022-12-20T08:45:58;9.40;99.90
20946;DHT22;10632;51.276;7.116;2022-12-20T08:48:26;9.40;99.90
20946;DHT22;10632;51.276;7.116;2022-12-20T08:50:54;9.40;99.90
20946;DHT22;10632;51.276;7.116;2022-12-20T08:53:21;9.40;99.90
20946;DHT22;10632;51.276;7.116;2022-12-20T08:55:48;9.50;99.90
20946;DHT22;10632;51.276;7.116;2022-12-20T08:58:17;9.40;99.90
20946;DHT22;10632;51.276;7.116;2022-12-20T09:00:44;9.50;99.90
20946;DHT22;10632;51.276;7.116;2022-12-20T09:03:11;9.50;99.90
20946;DHT22;10632;51.276;7.116;2022-12-20T09:05:46;9.50;99.90
20946;DHT22;10632;51.276;7.116;2022-12-20T09:08:14;9.50;99.90
20946;DHT22;10632;51.276;7.116;2022-12-20T09:10:41;9.60;99.90
20946;DHT22;10632;51.276;7.116;2022-12-20T09:13:08;9.50;99.90
20946;DHT22;10632;51.276;7.116;2022-12-20T09:15:39;9.60;99.90
20946;DHT22;10632;51.276;7.116;2022-12-20T09:18:06;9.60;99.90
20946;DHT22;10632;51.276;7.116;2022-12-20T09:20:33;9.60;99.90
20946;DHT22;10632;51.276;7.116;2022-12-20T09:23:00;9.60;99.90
20946;DHT22;10632;51.276;7.116;2022-12-20T09:25:27;9.60;99.90
20946;DHT22;10632;51.276;7.116;2022-12-20T09:27:54;9.60;99.90
20946;DHT22;10632;51.276;7.116;2022-12-20T09:30:21;9.60;99.90
20946;DHT22;10632;51.276;7.116;2022-12-20T09:32:50;9.70;99.90
20946;DHT22;10632;51.276;7.116;2022-12-20T09:35:17;9.60;99.90
20946;DHT22;10632;51.276;7.116;2022-12-20T09:37:44;9.60;99.90
20946;DHT22;10632;51.276;7.116;2022-12-20T09:40:16;9.60;99.90
20946;DHT22;10632;51.276;7.116;2022-12-20T09:42:45;9.70;99.90
20946;DHT22;10632;51.276;7.116;2022-12-20T09:45:18;9.60;99.90
20946;DHT22;10632;51.276;7.116;2022-12-20T09:47:46;9.70;99.90
20946;DHT22;10632;51.276;7.116;2022-12-20T09:50:17;9.70;99.90
20946;DHT22;10632;51.276;7.116;2022-12-20T09:52:58;9.60;99.90
20946;DHT22;10632;51.276;7.116;2022-12-20T09:55:34;9.60;99.90
20946;DHT22;10632;51.276;7.116;2022-12-20T09:58:22;9.70;99.90
20946;DHT22;10632;51.276;7.116;2022-12-20T10:00:54;9.70;99.90
20946;DHT22;10632;51.276;7.116;2022-12-20T10:03:25;9.70;99.90
20946;DHT22;10632;51.276;7.116;2022-12-20T10:05:55;9.70;99.90
20946;DHT22;10632;51.276;7.116;2022-12-20T10:08:36;9.80;99.90
20946;DHT22;10632;51.276;7.116;2022-12-20T10:11:12;9.80;99.90
20946;DHT22;10632;51.276;7.116;2022-12-20T10:13:52;9.80;99.90
20946;DHT22;10632;51.276;7.116;2022-12-20T10:16:31;9.80;99.90
20946;DHT22;10632;51.276;7.116;2022-12-20T10:19:12;9.80;99.90
20946;DHT22;10632;51.276;7.116;2022-12-20T10:21:46;9.80;99.90
20946;DHT22;10632;51.276;7.116;2022-12-20T10:24:17;9.80;99.90
20946;DHT22;10632;51.276;7.116;2022-12-20T10:26:45;9.80;99.90
20946;DHT22;10632;51.276;7.116;2022-12-20T10:29:15;9.80;99.90
20946;DHT22;10632;51.276;7.116;2022-12-20T10:31:42;9.90;99.90
20946;DHT22;10632;51.276;7.116;2022-12-20T10:34:09;9.90;99.90
20946;DHT22;10632;51.276;7.116;2022-12-20T10:36:36;9.90;99.90
20946;DHT22;10632;51.276;7.116;2022-12-20T10:39:06;9.90;99.90
20946;DHT22;10632;51.276;7.116;2022-12-20T10:41:46;9.90;99.90
20946;DHT22;10632;51.276;7.116;2022-12-20T10:44:18;10.00;99.90
20946;DHT22;10632;51.276;7.116;2022-12-20T10:46:49;10.00;99.90
20946;DHT22;10632;51.276;7.116;2022-12-20T10:49:27;10.00;99.90
20946;DHT22;10632;51.276;7.116;2022-12-20T10:51:57;10.00;99.90
20946;DHT22;10632;51.276;7.116;2022-12-20T10:54:29;10.00;99.90
20946;DHT22;10632;51.276;7.116;2022-12-20T10:56:58;10.00;99.90
20946;DHT22;10632;51.276;7.116;2022-12-20T10:59:30;10.10;99.90
20946;DHT22;10632;51.276;7.116;2022-12-20T11:01:59;10.10;99.90
20946;DHT22;10632;51.276;7.116;2022-12-20T11:04:27;10.10;99.90
20946;DHT22;10632;51.276;7.116;2022-12-20T11:06:55;10.10;99.90
20946;DHT22;10632;51.276;7.116;2022-12-20T11:09:29;10.10;99.90
20946;DHT22;10632;51.276;7.116;2022-12-20T11:11:58;10.10;99.90
20946;DHT22;10632;51.276;7.116;2022-12-20T11:14:25;10.10;99.90
20946;DHT22;10632;51.276;7.116;2022-12-20T11:16:53;10.10;99.90
20946;DHT22;10632;51.276;7.116;2022-12-20T11:19:42;10.20;99.90
20946;DHT22;10632;51.276;7.116;2022-12-20T11:22:20;10.20;99.90
20946;DHT22;10632;51.276;7.116;2022-12-20T11:24:59;10.20;99.90
20946;DHT22;10632;51.276;7.116;2022-12-20T11:27:34;10.30;99.90
20946;DHT22;10632;51.276;7.116;2022-12-20T11:30:14;10.30;99.90
20946;DHT22;10632;51.276;7.116;2022-12-20T11:33:06;10.40;99.90
20946;DHT22;10632;51.276;7.116;2022-12-20T11:35:44;10.40;99.90
20946;DHT22;10632;51.276;7.116;2022-12-20T11:38:21;10.40;99.90
20946;DHT22;10632;51.276;7.116;2022-12-20T11:40:56;10.40;99.90
20946;DHT22;10632;51.276;7.116;2022-12-20T11:43:45;10.40;99.90
20946;DHT22;10632;51.276;7.116;2022-12-20T11:46:23;10.50;99.90
20946;DHT22;10632;51.276;7.116;2022-12-20T11:52:09;10.50;99.90
20946;DHT22;10632;51.276;7.116;2022-12-20T11:54:46;10.40;99.90
20946;DHT22;10632;51.276;7.116;2022-12-20T11:57:19;10.40;99.90
20946;DHT22;10632;51.276;7.116;2022-12-20T11:59:52;10.40;99.90
20946;DHT22;10632;51.276;7.116;2022-12-20T12:02:24;10.40;99.90
20946;DHT22;10632;51.276;7.116;2022-12-20T12:04:59;10.40;99.90
20946;DHT22;10632;51.276;7.116;2022-12-20T12:07:29;10.40;99.90
20946;DHT22;10632;51.276;7.116;2022-12-20T12:10:01;10.40;99.90
20946;DHT22;10632;51.276;7.116;2022-12-20T12:12:32;10.40;99.90
20946;DHT22;10632;51.276;7.116;2022-12-20T12:15:15;10.40;99.90
20946;DHT22;10632;51.276;7.116;2022-12-20T12:17:47;10.40;99.90
20946;DHT22;10632;51.276;7.116;2022-12-20T12:20:30;10.40;99.90
20946;DHT22;10632;51.276;7.116;2022-12-20T12:23:04;10.40;99.90
20946;DHT22;10632;51.276;7.116;2022-12-20T12:25:32;10.40;99.90
20946;DHT22;10632;51.276;7.116;2022-12-20T12:28:02;10.40;99.90
20946;DHT22;10632;51.276;7.116;2022-12-20T12:30:35;10.40;99.90
20946;DHT22;10632;51.276;7.116;2022-12-20T12:33:09;10.40;99.90
20946;DHT22;10632;51.276;7.116;2022-12-20T12:35:51;10.40;99.90
20946;DHT22;10632;51.276;7.116;2022-12-20T12:44:47;10.40;99.90
20946;DHT22;10632;51.276;7.116;2022-12-20T12:47:19;10.40;99.90
20946;DHT22;10632;51.276;7.116;2022-12-20T12:49:48;10.40;99.90
20946;DHT22;10632;51.276;7.116;2022-12-20T12:52:41;10.40;99.90
20946;DHT22;10632;51.276;7.116;2022-12-20T12:55:36;10.40;99.90
20946;DHT22;10632;51.276;7.116;2022-12-20T12:58:25;10.40;99.90
20946;DHT22;10632;51.276;7.116;2022-12-20T13:00:58;10.30;99.90
20946;DHT22;10632;51.276;7.116;2022-12-20T13:03:41;10.30;99.90
20946;DHT22;10632;51.276;7.116;2022-12-20T13:06:41;10.30;99.90
20946;DHT22;10632;51.276;7.116;2022-12-20T13:09:17;10.30;99.90
20946;DHT22;10632;51.276;7.116;2022-12-20T13:11:45;10.20;99.90
20946;DHT22;10632;51.276;7.116;2022-12-20T13:17:46;10.10;99.90
20946;DHT22;10632;51.276;7.116;2022-12-20T13:20:19;10.00;99.90
20946;DHT22;10632;51.276;7.116;2022-12-20T13:23:13;10.00;99.90
20946;DHT22;10632;51.276;7.116;2022-12-20T13:25:43;9.90;99.90
20946;DHT22;10632;51.276;7.116;2022-12-20T13:28:44;9.90;99.90
20946;DHT22;10632;51.276;7.116;2022-12-20T13:31:35;9.80;99.90
20946;DHT22;10632;51.276;7.116;2022-12-20T13:34:38;9.80;99.90
20946;DHT22;10632;51.276;7.116;2022-12-20T13:37:27;9.70;99.90
20946;DHT22;10632;51.276;7.116;2022-12-20T13:39:54;9.70;99.90
20946;DHT22;10632;51.276;7.116;2022-12-20T13:42:36;9.70;99.90
20946;DHT22;10632;51.276;7.116;2022-12-20T13:45:08;9.70;99.90
20946;DHT22;10632;51.276;7.116;2022-12-20T13:47:41;9.70;99.90
20946;DHT22;10632;51.276;7.116;2022-12-20T13:50:33;9.70;99.90
20946;DHT22;10632;51.276;7.116;2022-12-20T13:53:04;9.70;99.90
20946;DHT22;10632;51.276;7.116;2022-12-20T13:55:36;9.70;99.90
20946;DHT22;10632;51.276;7.116;2022-12-20T13:58:05;9.70;99.90
20946;DHT22;10632;51.276;7.116;2022-12-20T14:00:33;9.70;99.90
20946;DHT22;10632;51.276;7.116;2022-12-20T14:03:01;9.80;99.90
20946;DHT22;10632;51.276;7.116;2022-12-20T14:05:35;9.80;99.90
20946;DHT22;10632;51.276;7.116;2022-12-20T14:08:05;9.80;99.90
20946;DHT22;10632;51.276;7.116;2022-12-20T14:10:34;9.80;99.90
20946;DHT22;10632;51.276;7.116;2022-12-20T14:13:02;9.80;99.90
20946;DHT22;10632;51.276;7.116;2022-12-20T14:15:31;9.80;99.90
20946;DHT22;10632;51.276;7.116;2022-12-20T14:18:05;9.80;99.90
20946;DHT22;10632;51.276;7.116;2022-12-20T14:20:34;9.80;99.90
20946;DHT22;10632;51.276;7.116;2022-12-20T14:23:03;9.80;99.90
20946;DHT22;10632;51.276;7.116;2022-12-20T14:25:34;9.80;99.90
20946;DHT22;10632;51.276;7.116;2022-12-20T14:28:02;9.70;99.90
20946;DHT22;10632;51.276;7.116;2022-12-20T14:30:33;9.70;99.90
20946;DHT22;10632;51.276;7.116;2022-12-20T14:33:01;9.80;99.90
20946;DHT22;10632;51.276;7.116;2022-12-20T14:35:28;9.70;99.90
20946;DHT22;10632;51.276;7.116;2022-12-20T14:37:59;9.70;99.90
20946;DHT22;10632;51.276;7.116;2022-12-20T14:40:28;9.70;99.90
20946;DHT22;10632;51.276;7.116;2022-12-20T14:42:55;9.70;99.90
20946;DHT22;10632;51.276;7.116;2022-12-20T14:45:25;9.70;99.90
20946;DHT22;10632;51.276;7.116;2022-12-20T14:47:56;9.70;99.90
20946;DHT22;10632;51.276;7.116;2022-12-20T14:50:28;9.70;99.90
20946;DHT22;10632;51.276;7.116;2022-12-20T14:52:57;9.70;99.90
20946;DHT22;10632;51.276;7.116;2022-12-20T14:55:30;9.70;99.90
20946;DHT22;10632;51.276;7.116;2022-12-20T14:57:58;9.60;99.90
20946;DHT22;10632;51.276;7.116;2022-12-20T15:00:26;9.60;99.90
20946;DHT22;10632;51.276;7.116;2022-12-20T15:03:01;9.60;99.90
20946;DHT22;10632;51.276;7.116;2022-12-20T15:05:52;9.60;99.90
20946;DHT22;10632;51.276;7.116;2022-12-20T15:08:23;9.60;99.90
20946;DHT22;10632;51.276;7.116;2022-12-20T15:10:55;9.60;99.90
20946;DHT22;10632;51.276;7.116;2022-12-20T15:13:26;9.60;99.90
20946;DHT22;10632;51.276;7.116;2022-12-20T15:15:53;9.60;99.90
20946;DHT22;10632;51.276;7.116;2022-12-20T15:18:21;9.60;99.90
20946;DHT22;10632;51.276;7.116;2022-12-20T15:20:53;9.60;99.90
20946;DHT22;10632;51.276;7.116;2022-12-20T15:23:22;9.60;99.90
20946;DHT22;10632;51.276;7.116;2022-12-20T15:25:49;9.60;99.90
20946;DHT22;10632;51.276;7.116;2022-12-20T15:28:18;9.60;99.90
20946;DHT22;10632;51.276;7.116;2022-12-20T15:30:46;9.60;99.90
20946;DHT22;10632;51.276;7.116;2022-12-20T15:33:19;9.60;99.90
20946;DHT22;10632;51.276;7.116;2022-12-20T15:35:47;9.60;99.90
20946;DHT22;10632;51.276;7.116;2022-12-20T15:38:16;9.60;99.90
20946;DHT22;10632;51.276;7.116;2022-12-20T15:40:48;9.60;99.90
20946;DHT22;10632;51.276;7.116;2022-12-20T15:43:17;9.60;99.90
20946;DHT22;10632;51.276;7.116;2022-12-20T15:45:46;9.60;99.90
20946;DHT22;10632;51.276;7.116;2022-12-20T15:48:16;9.60;99.90
20946;DHT22;10632;51.276;7.116;2022-12-20T15:50:48;9.60;99.90
20946;DHT22;10632;51.276;7.116;2022-12-20T15:53:17;9.60;99.90
20946;DHT22;10632;51.276;7.116;2022-12-20T15:55:50;9.60;99.90
20946;DHT22;10632;51.276;7.116;2022-12-20T15:58:17;9.60;99.90
20946;DHT22;10632;51.276;7.116;2022-12-20T16:00:44;9.60;99.90
20946;DHT22;10632;51.276;7.116;2022-12-20T16:03:16;9.70;99.90
20946;DHT22;10632;51.276;7.116;2022-12-20T16:05:44;9.70;99.90
20946;DHT22;10632;51.276;7.116;2022-12-20T16:08:10;9.60;99.90
20946;DHT22;10632;51.276;7.116;2022-12-20T16:10:37;9.70;99.90
20946;DHT22;10632;51.276;7.116;2022-12-20T16:13:06;9.70;99.90
20946;DHT22;10632;51.276;7.116;2022-12-20T16:15:33;9.70;99.90
20946;DHT22;10632;51.276;7.116;2022-12-20T16:18:00;9.70;99.90
20946;DHT22;10632;51.276;7.116;2022-12-20T16:20:27;9.70;99.90
20946;DHT22;10632;51.276;7.116;2022-12-20T16:22:54;9.60;99.90